Aviation Digital Data Service (ADDS)

Output produced by METARs form (1836 UTC 07 December 2021)
found at http://aviationweather.gov/metar/data/
 
METAR text: KSHN 071753Z AUTO 00000KT 1/4SM FG VV003 06/06 A3002 RMK AO2 SLP168 T00610061 10061 20056 51008
Conditions at: KSHN (SHELTON , WA, US) observed 1753 UTC 07 December 2021
Temperature: 6.1°C (43°F)
Dewpoint: 6.1°C (43°F) [RH = 100%]
Pressure (altimeter): 30.02 inches Hg (1016.7 mb)
[Sea-level pressure: 1016.8 mb]
Winds: calm
Visibility: 0.25 miles (0.40 km)
Ceiling: indefinite ceiling with vertical visibility of 300 feet AGL
Clouds: obscured sky
Weather: FG  (fog)